Time;durP1;ratioP1;P1;durP2;ratioP2;P2;SDS_P1;SDS_P2;PMS_P1;PMS_P2;Temp;Humidity;BMP_temperature;BMP_pressure;BME280_temperature;BME280_humidity;BME280_pressure;Samples;Min_cycle;Max_cycle;Signal;HPM_P1;HPM_P2
2021/11/26 00:01:56;;;;;;;14.30;8.20;;;1.50;99.90;;;2.35;100.00;97339.59;5037158;28;20962;-80
2021/11/26 00:04:26;;;;;;;13.73;7.70;;;1.40;99.90;;;2.40;100.00;97325.25;5040633;28;20508;-81
2021/11/26 00:06:54;;;;;;;10.63;7.80;;;1.50;99.90;;;2.41;100.00;97323.50;5039346;28;20505;-81
2021/11/26 00:09:23;;;;;;;9.43;7.03;;;1.50;99.90;;;2.43;100.00;97329.31;5032110;28;20464;-81
2021/11/26 00:11:51;;;;;;;12.30;7.80;;;1.60;99.90;;;2.45;100.00;97327.38;5035637;28;20865;-80
2021/11/26 00:14:23;;;;;;;11.10;7.20;;;1.60;99.90;;;2.47;100.00;97323.69;5024139;28;20480;-80
2021/11/26 00:16:56;;;;;;;11.60;7.60;;;1.70;99.90;;;2.48;100.00;97315.00;5030771;28;20489;-81
2021/11/26 00:19:28;;;;;;;11.87;7.83;;;1.80;99.90;;;2.50;100.00;97309.66;5028216;28;20477;-80
2021/11/26 00:21:58;;;;;;;10.97;7.90;;;1.70;99.90;;;2.51;100.00;97306.94;5029451;28;20490;-80
2021/11/26 00:24:27;;;;;;;11.60;7.63;;;1.90;99.90;;;2.52;100.00;97305.97;5024378;28;20476;-81
2021/11/26 00:26:55;;;;;;;12.00;6.53;;;1.80;99.90;;;2.54;100.00;97301.47;5026441;28;21035;-80
2021/11/26 00:29:24;;;;;;;10.77;7.13;;;1.80;99.90;;;2.53;100.00;97284.34;5029462;28;20526;-80
2021/11/26 00:31:52;;;;;;;10.10;6.93;;;1.70;99.90;;;2.56;100.00;97277.28;5036878;28;20990;-80
2021/11/26 00:34:21;;;;;;;11.07;6.87;;;1.70;99.90;;;2.44;100.00;97284.50;5032650;28;20466;-80
2021/11/26 00:36:51;;;;;;;11.63;6.80;;;1.40;99.90;;;2.44;100.00;97274.97;5041727;28;21018;-80
2021/11/26 00:39:20;;;;;;;11.53;6.17;;;1.40;99.90;;;2.45;100.00;97274.03;5029807;28;20467;-81
2021/11/26 00:41:49;;;;;;;10.27;6.33;;;1.50;99.90;;;2.43;100.00;97264.84;5026222;28;20463;-80
2021/11/26 00:44:18;;;;;;;12.27;7.50;;;1.50;99.90;;;2.43;100.00;97267.41;5041669;28;20468;-80
2021/11/26 00:46:46;;;;;;;12.13;7.63;;;1.60;99.90;;;2.36;100.00;97267.19;5030635;28;20565;-80
2021/11/26 00:49:15;;;;;;;12.90;7.17;;;1.60;99.90;;;2.30;100.00;97272.97;5027336;28;20492;-80
2021/11/26 00:51:44;;;;;;;9.23;7.17;;;1.50;99.90;;;2.24;100.00;97272.78;5024730;28;20468;-80
2021/11/26 00:54:14;;;;;;;10.93;7.00;;;1.30;99.90;;;2.14;100.00;97262.59;5031424;28;20750;-80
2021/11/26 00:56:42;;;;;;;11.00;6.97;;;1.10;99.90;;;2.06;100.00;97270.28;5027472;28;20519;-80
2021/11/26 00:59:11;;;;;;;13.30;7.07;;;1.00;99.90;;;2.06;100.00;97265.13;5021926;28;20462;-80
2021/11/26 01:01:39;;;;;;;8.07;6.27;;;1.10;99.90;;;2.06;100.00;97266.91;5025565;28;20472;-80
2021/11/26 01:04:08;;;;;;;10.00;6.10;;;1.10;99.90;;;2.01;100.00;97259.63;5023490;28;20460;-80
2021/11/26 01:06:37;;;;;;;10.37;6.77;;;1.10;99.90;;;1.95;100.00;97253.31;5018240;28;20505;-80
2021/11/26 01:09:06;;;;;;;14.23;7.27;;;1.00;99.90;;;1.93;100.00;97249.28;5024064;28;20463;-80
2021/11/26 01:11:36;;;;;;;15.17;7.90;;;1.00;99.90;;;1.94;100.00;97238.00;5030178;28;20450;-80
2021/11/26 01:14:04;;;;;;;14.50;7.83;;;0.90;99.90;;;1.90;100.00;97226.38;5031671;28;20485;-80
2021/11/26 01:16:33;;;;;;;10.63;7.57;;;1.00;99.90;;;1.88;100.00;97226.53;5032564;28;20462;-80
2021/11/26 01:19:02;;;;;;;10.60;6.40;;;0.90;99.90;;;1.83;100.00;97220.22;5031933;28;20474;-80
2021/11/26 01:21:31;;;;;;;10.47;7.00;;;0.80;99.90;;;1.74;100.00;97223.69;5032689;28;21115;-80
2021/11/26 01:24:00;;;;;;;9.30;6.73;;;0.90;99.90;;;1.77;100.00;97218.28;5030342;28;20438;-80
2021/11/26 01:26:28;;;;;;;17.77;8.07;;;0.80;99.90;;;1.65;100.00;97220.28;5029660;28;20558;-80
2021/11/26 01:28:58;;;;;;;12.83;7.30;;;0.70;99.90;;;1.57;100.00;97222.81;5030278;28;20454;-80
2021/11/26 01:31:27;;;;;;;11.80;7.03;;;0.50;99.90;;;1.44;100.00;97218.06;5023569;28;20495;-80
2021/11/26 01:33:56;;;;;;;12.87;7.57;;;0.20;99.90;;;1.41;100.00;97220.94;5022441;28;20489;-80
2021/11/26 01:36:25;;;;;;;18.83;7.67;;;0.30;99.90;;;1.41;100.00;97222.69;5023062;28;20469;-80
2021/11/26 01:38:55;;;;;;;9.63;6.67;;;0.30;99.90;;;1.42;100.00;97225.09;5028882;28;20860;-80
2021/11/26 01:41:23;;;;;;;12.50;7.73;;;0.50;99.90;;;1.36;100.00;97224.91;5025354;28;21019;-80
2021/11/26 01:43:52;;;;;;;10.40;6.77;;;0.50;99.90;;;1.30;100.00;97220.34;5024612;28;20876;-80
2021/11/26 01:46:22;;;;;;;13.80;8.37;;;0.40;99.90;;;1.32;100.00;97221.81;5026511;28;20467;-80
2021/11/26 01:48:51;;;;;;;15.97;7.93;;;0.40;99.90;;;1.34;100.00;97222.50;5020522;28;20463;-80
2021/11/26 01:51:19;;;;;;;10.47;7.30;;;0.40;99.90;;;1.39;100.00;97222.84;5023367;28;21035;-80
2021/11/26 01:53:49;;;;;;;14.00;6.70;;;0.50;99.90;;;1.41;100.00;97218.38;5022036;28;20498;-80
2021/11/26 01:56:17;;;;;;;12.63;7.63;;;0.60;99.90;;;1.45;100.00;97218.88;5017947;28;20498;-80
2021/11/26 01:58:46;;;;;;;14.37;7.13;;;0.60;99.90;;;1.41;100.00;97205.47;5024335;28;20461;-80
2021/11/26 02:01:15;;;;;;;11.60;7.17;;;0.50;99.90;;;1.38;100.00;97186.94;5025322;28;20508;-80
2021/11/26 02:03:45;;;;;;;11.27;6.97;;;0.50;99.90;;;1.41;100.00;97187.47;5032444;28;20952;-80
2021/11/26 02:06:14;;;;;;;11.30;7.30;;;0.60;99.90;;;1.48;100.00;97183.31;5039440;28;20859;-80
2021/11/26 02:08:43;;;;;;;13.10;6.90;;;0.70;99.90;;;1.51;100.00;97174.47;5026510;28;20544;-80
2021/11/26 02:11:12;;;;;;;10.60;6.90;;;0.70;99.90;;;1.52;100.00;97169.19;5024401;28;20531;-79
2021/11/26 02:13:42;;;;;;;22.33;6.90;;;0.70;99.90;;;1.52;100.00;97164.03;5022572;28;21013;-80
2021/11/26 02:16:11;;;;;;;11.40;7.60;;;0.60;99.90;;;1.48;100.00;97167.88;5018486;28;20458;-80
2021/11/26 02:18:39;;;;;;;14.70;7.60;;;0.50;99.90;;;1.52;100.00;97164.03;5022226;28;20484;-81
2021/11/26 02:21:09;;;;;;;11.80;7.70;;;0.50;99.90;;;1.52;100.00;97153.72;5019309;28;20459;-81
2021/11/26 02:23:39;;;;;;;15.93;7.03;;;0.60;99.90;;;1.60;100.00;97147.78;5021687;28;20857;-80
2021/11/26 02:26:08;;;;;;;12.37;8.27;;;0.70;99.90;;;1.61;100.00;97156.31;5018221;28;20446;-80
2021/11/26 02:28:36;;;;;;;11.57;8.30;;;0.70;99.90;;;1.67;100.00;97150.56;5022636;28;20502;-80
2021/11/26 02:31:05;;;;;;;12.47;8.20;;;0.80;99.90;;;1.68;100.00;97136.72;5026511;28;20457;-80
2021/11/26 02:33:34;;;;;;;13.27;7.90;;;0.80;99.90;;;1.63;100.00;97144.13;5019551;28;20997;-80
2021/11/26 02:36:03;;;;;;;11.40;7.70;;;0.80;99.90;;;1.64;100.00;97135.41;5026611;28;20529;-80
2021/11/26 02:38:33;;;;;;;13.40;7.97;;;0.80;99.90;;;1.67;100.00;97135.91;5018900;28;20548;-80
2021/11/26 02:41:02;;;;;;;16.43;8.47;;;0.90;99.90;;;1.72;100.00;97135.47;5024669;28;20906;-80
2021/11/26 02:43:30;;;;;;;14.17;8.17;;;0.90;99.90;;;1.77;100.00;97135.81;5024419;28;20464;-80
2021/11/26 02:45:59;;;;;;;10.47;7.97;;;1.00;99.90;;;1.79;100.00;97128.72;5015612;28;20494;-80
2021/11/26 02:48:27;;;;;;;13.27;8.90;;;1.00;99.90;;;1.81;100.00;97126.78;5024062;28;20588;-80
2021/11/26 02:50:56;;;;;;;12.43;8.30;;;1.10;99.90;;;1.83;100.00;97112.81;5021573;28;20493;-80
2021/11/26 02:53:25;;;;;;;15.33;8.07;;;1.10;99.90;;;1.84;100.00;97113.63;5016968;28;20460;-80
2021/11/26 02:55:55;;;;;;;13.53;8.20;;;1.20;99.90;;;1.86;100.00;97112.50;5025493;28;20522;-81
2021/11/26 02:58:24;;;;;;;13.20;8.20;;;1.20;99.90;;;1.88;100.00;97112.31;5021933;28;20516;-80
2021/11/26 03:00:57;;;;;;;14.60;8.20;;;1.20;99.90;;;1.90;100.00;97105.25;5023251;28;20819;-80
2021/11/26 03:03:26;;;;;;;13.50;8.47;;;1.20;99.90;;;1.93;100.00;97105.75;5020535;28;20555;-81
2021/11/26 03:06:00;;;;;;;19.33;10.10;;;1.20;99.90;;;1.96;100.00;97105.44;5015995;28;20517;-81
2021/11/26 03:08:30;;;;;;;15.60;8.93;;;1.10;99.90;;;2.00;100.00;97095.63;5025036;28;20544;-80
2021/11/26 03:11:02;;;;;;;14.93;8.30;;;1.20;99.90;;;1.93;100.00;97102.38;5024195;28;20455;-80
2021/11/26 03:13:31;;;;;;;13.17;8.10;;;1.10;99.90;;;1.95;100.00;97098.66;5025327;28;20536;-80
2021/11/26 03:16:01;;;;;;;16.60;8.53;;;1.10;99.90;;;1.98;100.00;97092.38;5025021;28;20464;-81
2021/11/26 03:18:30;;;;;;;16.07;8.90;;;1.10;99.90;;;2.01;100.00;97089.50;5029750;28;20466;-80
2021/11/26 03:20:59;;;;;;;16.13;9.17;;;1.20;99.90;;;2.01;100.00;97092.09;5031366;28;20529;-80
2021/11/26 03:23:28;;;;;;;13.93;8.77;;;1.10;99.90;;;2.01;100.00;97086.94;5028961;28;20626;-80
2021/11/26 03:25:56;;;;;;;11.50;7.83;;;1.10;99.90;;;1.98;100.00;97076.91;5029967;28;21192;-80
2021/11/26 03:28:26;;;;;;;15.40;9.33;;;1.00;99.90;;;1.98;100.00;97071.75;5028269;28;20503;-80
2021/11/26 03:30:55;;;;;;;19.23;9.47;;;1.00;99.90;;;2.01;100.00;97071.47;5026010;28;20463;-80
2021/11/26 03:33:24;;;;;;;15.27;8.00;;;1.20;99.90;;;1.92;100.00;97067.22;5025429;28;20566;-80
2021/11/26 03:35:53;;;;;;;14.40;8.07;;;1.00;99.90;;;1.97;100.00;97065.81;5033104;28;20454;-80
2021/11/26 03:38:21;;;;;;;13.67;8.20;;;1.10;99.90;;;2.00;100.00;97059.53;5022752;28;20467;-80
2021/11/26 03:40:50;;;;;;;12.70;7.50;;;1.10;99.90;;;2.03;100.00;97061.78;5034467;28;20496;-80
2021/11/26 03:43:19;;;;;;;15.50;7.23;;;1.20;99.90;;;2.05;100.00;97049.53;5024602;28;20499;-80
2021/11/26 03:45:49;;;;;;;13.03;8.37;;;1.20;99.90;;;2.05;100.00;97044.38;5022287;28;20460;-80
2021/11/26 03:48:18;;;;;;;14.27;7.43;;;1.20;99.90;;;2.08;100.00;97038.94;5018203;28;20705;-80
2021/11/26 03:50:47;;;;;;;14.80;8.10;;;1.30;99.90;;;2.09;100.00;97042.28;5028482;28;20948;-81
2021/11/26 03:53:15;;;;;;;12.13;8.00;;;1.30;99.90;;;2.11;100.00;97036.03;5025461;28;20458;-81
2021/11/26 03:55:44;;;;;;;13.57;8.07;;;1.30;99.90;;;2.12;100.00;97037.63;5027445;28;20536;-81
2021/11/26 03:58:12;;;;;;;13.63;7.83;;;1.20;99.90;;;2.10;100.00;97029.25;5024552;28;20959;-81
2021/11/26 04:00:41;;;;;;;11.67;8.20;;;1.20;99.90;;;2.12;100.00;97023.94;5024306;28;20959;-80
2021/11/26 04:03:11;;;;;;;14.90;8.10;;;1.30;99.90;;;2.12;100.00;97021.38;5024184;28;20499;-80
2021/11/26 04:05:40;;;;;;;15.73;8.17;;;1.20;99.90;;;2.14;100.00;97025.41;5029767;28;20467;-80
2021/11/26 04:08:09;;;;;;;13.80;8.23;;;1.20;99.90;;;2.16;100.00;97018.28;5029326;28;20495;-81
2021/11/26 04:10:38;;;;;;;14.90;8.57;;;1.30;99.90;;;2.18;100.00;97016.38;5028444;28;20454;-81
2021/11/26 04:13:08;;;;;;;14.80;8.97;;;1.30;99.90;;;2.19;100.00;97017.97;5027820;28;20859;-81
2021/11/26 04:15:38;;;;;;;10.73;8.20;;;1.30;99.90;;;2.23;100.00;97016.69;5023212;28;20475;-81
2021/11/26 04:18:08;;;;;;;11.87;6.93;;;1.40;99.90;;;2.20;100.00;97009.28;5029078;28;20471;-80
2021/11/26 04:20:41;;;;;;;9.77;7.20;;;1.40;99.90;;;2.15;100.00;97001.25;5028223;28;20507;-81
2021/11/26 04:23:10;;;;;;;10.80;6.93;;;1.20;99.90;;;2.11;100.00;97002.50;5022285;28;20494;-81
2021/11/26 04:25:39;;;;;;;18.13;9.93;;;1.20;99.90;;;2.08;100.00;96999.44;5022173;28;21027;-80
2021/11/26 04:28:07;;;;;;;13.43;8.27;;;1.40;99.90;;;2.03;100.00;97003.31;5017083;28;20598;-81
2021/11/26 04:30:36;;;;;;;13.80;9.20;;;1.40;99.90;;;2.09;100.00;96991.53;5014673;28;20521;-81
2021/11/26 04:33:05;;;;;;;20.10;6.80;;;1.40;99.90;;;2.11;100.00;96993.97;5020709;28;20474;-81
2021/11/26 04:35:33;;;;;;;14.70;8.70;;;1.40;99.90;;;2.10;100.00;96985.44;5020026;28;21253;-81
2021/11/26 04:38:03;;;;;;;11.97;7.77;;;1.40;99.90;;;2.15;100.00;96985.75;5024443;28;20899;-81
2021/11/26 04:40:32;;;;;;;12.47;8.47;;;1.40;99.90;;;2.17;100.00;96994.13;5029725;28;20455;-81
2021/11/26 04:43:01;;;;;;;14.43;7.93;;;1.40;99.90;;;2.16;100.00;96987.34;5028143;28;20464;-81
2021/11/26 04:45:29;;;;;;;15.97;8.10;;;1.40;99.90;;;2.14;100.00;96976.41;5020606;28;20465;-81
2021/11/26 04:47:58;;;;;;;12.90;7.67;;;1.40;99.90;;;2.14;100.00;96973.03;5024037;28;20967;-81
2021/11/26 04:50:26;;;;;;;13.43;7.47;;;1.40;99.90;;;2.11;100.00;96968.19;5023192;28;20474;-81
2021/11/26 04:52:55;;;;;;;9.70;7.40;;;1.30;99.90;;;2.07;100.00;96967.72;5026545;28;20890;-81
2021/11/26 04:55:26;;;;;;;11.00;7.03;;;1.20;99.90;;;2.06;100.00;96971.25;5021432;28;20461;-80
2021/11/26 04:57:55;;;;;;;15.53;7.93;;;1.20;99.90;;;2.03;100.00;96967.22;5028657;28;20859;-80
2021/11/26 05:00:23;;;;;;;17.20;8.07;;;1.20;99.90;;;1.98;100.00;96966.06;5022381;28;20468;-81
2021/11/26 05:02:52;;;;;;;15.53;7.77;;;1.20;99.90;;;1.95;100.00;96972.34;5019799;28;20526;-81
2021/11/26 05:05:21;;;;;;;15.87;8.90;;;1.10;99.90;;;1.88;100.00;96968.81;5020123;28;20893;-80
2021/11/26 05:07:50;;;;;;;10.10;7.10;;;1.00;99.90;;;1.83;100.00;96958.19;5022757;28;20540;-81
2021/11/26 05:10:20;;;;;;;16.80;8.20;;;0.90;99.90;;;1.78;100.00;96957.03;5032051;28;20509;-80
2021/11/26 05:12:53;;;;;;;13.50;7.73;;;0.90;99.90;;;1.78;100.00;96963.00;5027040;28;20476;-81
2021/11/26 05:15:27;;;;;;;17.83;9.13;;;0.90;99.90;;;1.76;100.00;96949.47;5025550;28;20456;-81
2021/11/26 05:17:58;;;;;;;14.30;7.53;;;0.90;99.90;;;1.73;100.00;96954.97;5029021;28;20460;-80
2021/11/26 05:20:30;;;;;;;13.90;8.07;;;0.90;99.90;;;1.71;100.00;96953.47;5025340;28;20509;-80
2021/11/26 05:22:59;;;;;;;21.70;7.70;;;0.80;99.90;;;1.71;100.00;96945.75;5036381;28;21079;-81
2021/11/26 05:25:27;;;;;;;13.67;7.33;;;0.80;99.90;;;1.67;100.00;96949.59;5032812;28;20450;-81
2021/11/26 05:27:58;;;;;;;13.43;7.77;;;0.80;99.90;;;1.65;100.00;96942.06;5033922;28;21013;-78
2021/11/26 05:30:27;;;;;;;14.60;7.83;;;0.90;99.90;;;1.65;100.00;96936.09;5027726;28;20499;-84
2021/11/26 05:32:55;;;;;;;13.43;7.97;;;0.80;99.90;;;1.66;100.00;96942.88;5033078;28;20452;-78
2021/11/26 05:35:24;;;;;;;12.03;7.70;;;0.80;99.90;;;1.64;100.00;96929.31;5032995;28;20512;-77
2021/11/26 05:37:52;;;;;;;14.53;7.83;;;0.70;99.90;;;1.61;100.00;96932.22;5033636;28;21006;-78
2021/11/26 05:40:21;;;;;;;14.67;7.20;;;0.80;99.90;;;1.61;100.00;96927.06;5032894;28;20516;-78
2021/11/26 05:42:51;;;;;;;16.00;9.37;;;0.80;99.90;;;1.60;100.00;96922.91;5031363;28;20450;-78
2021/11/26 05:45:21;;;;;;;13.93;8.17;;;0.70;99.90;;;1.57;100.00;96915.47;5032683;28;20454;-78
2021/11/26 05:47:50;;;;;;;17.90;9.73;;;0.70;99.90;;;1.56;100.00;96916.44;5032221;28;20874;-77
2021/11/26 05:50:22;;;;;;;13.33;8.07;;;0.70;99.90;;;1.56;100.00;96914.69;5032294;28;20589;-78
2021/11/26 05:52:52;;;;;;;12.60;7.97;;;0.60;99.90;;;1.56;100.00;96906.94;5025615;28;20448;-77
2021/11/26 05:55:25;;;;;;;11.70;7.53;;;0.60;99.90;;;1.58;100.00;96901.63;5036531;28;20446;-78
2021/11/26 05:57:55;;;;;;;17.63;7.70;;;0.70;99.90;;;1.53;100.00;96899.53;5033469;28;20951;-78
2021/11/26 06:00:28;;;;;;;16.07;9.20;;;0.60;99.90;;;1.53;100.00;96895.19;5029445;28;20892;-78
2021/11/26 06:02:57;;;;;;;20.03;8.33;;;0.50;99.90;;;1.53;100.00;96899.53;5021728;28;21005;-78
2021/11/26 06:05:26;;;;;;;12.83;7.13;;;0.60;99.90;;;1.51;100.00;96893.72;5030153;28;20442;-78
2021/11/26 06:07:55;;;;;;;18.70;7.87;;;0.50;99.90;;;1.51;100.00;96886.00;5034234;28;20523;-78
2021/11/26 06:10:24;;;;;;;17.23;8.13;;;0.50;99.90;;;1.53;100.00;96877.16;5028854;28;20494;-78
2021/11/26 06:12:54;;;;;;;14.50;9.17;;;0.60;99.90;;;1.58;100.00;96881.03;5039418;28;20469;-78
2021/11/26 06:15:25;;;;;;;20.60;8.97;;;0.70;99.90;;;1.59;100.00;96875.72;5041372;28;20525;-78
2021/11/26 06:17:55;;;;;;;15.20;9.33;;;0.70;99.90;;;1.65;100.00;96871.69;5041149;28;20454;-78
2021/11/26 06:20:24;;;;;;;13.80;8.30;;;0.80;99.90;;;1.66;100.00;96868.97;5033536;28;20869;-78
2021/11/26 06:22:53;;;;;;;11.80;7.53;;;0.90;99.90;;;1.64;100.00;96862.34;5044339;28;20484;-78
2021/11/26 06:25:24;;;;;;;13.30;7.70;;;0.80;99.90;;;1.64;100.00;96863.16;5038359;28;20455;-77
2021/11/26 06:27:53;;;;;;;14.30;8.53;;;0.80;99.90;;;1.66;100.00;96856.09;5039792;28;20941;-78
2021/11/26 06:30:25;;;;;;;13.50;8.70;;;0.80;99.90;;;1.66;100.00;96855.28;5044310;28;20498;-78
2021/11/26 06:32:55;;;;;;;15.50;7.60;;;0.80;99.90;;;1.66;100.00;96852.69;5041692;28;20461;-78
2021/11/26 06:35:26;;;;;;;13.60;8.07;;;0.80;99.90;;;1.66;100.00;96850.13;5038110;28;20537;-77
2021/11/26 06:37:57;;;;;;;14.97;8.10;;;0.70;99.90;;;1.66;100.00;96845.78;5035746;28;20496;-78
2021/11/26 06:40:27;;;;;;;14.70;8.50;;;0.80;99.90;;;1.67;100.00;96841.41;5038818;28;20458;-77
2021/11/26 06:42:56;;;;;;;13.77;8.70;;;0.80;99.90;;;1.66;100.00;96834.66;5035297;28;20488;-78
2021/11/26 06:45:26;;;;;;;11.83;7.93;;;0.70;99.90;;;1.68;100.00;96832.72;5044501;28;20445;-78
2021/11/26 06:47:55;;;;;;;14.80;9.50;;;0.70;99.90;;;1.70;100.00;96829.00;5035363;28;20470;-78
2021/11/26 06:50:24;;;;;;;13.90;8.43;;;0.80;99.90;;;1.74;100.00;96832.06;5033996;28;20551;-78
2021/11/26 06:52:52;;;;;;;17.93;8.77;;;0.80;99.90;;;1.78;100.00;96830.78;5044340;28;20446;-78
2021/11/26 06:55:22;;;;;;;22.43;8.43;;;0.90;99.90;;;1.81;100.00;96833.03;5040962;28;20438;-78
2021/11/26 06:57:51;;;;;;;14.20;8.27;;;0.90;99.90;;;1.85;100.00;96834.31;5047516;28;20449;-78
2021/11/26 07:00:20;;;;;;;13.33;7.67;;;1.00;99.90;;;1.87;100.00;96822.91;5042245;28;20869;-78
2021/11/26 07:02:50;;;;;;;14.83;7.80;;;1.00;99.90;;;1.88;100.00;96818.53;5040417;28;20490;-78
2021/11/26 07:05:20;;;;;;;13.00;8.10;;;1.20;99.90;;;1.92;100.00;96812.91;5039148;28;20530;-78
2021/11/26 07:07:49;;;;;;;12.97;8.20;;;1.20;99.90;;;1.93;100.00;96809.34;5042525;28;20449;-78
2021/11/26 07:10:18;;;;;;;15.30;8.93;;;1.20;99.90;;;1.95;100.00;96806.59;5040152;28;20568;-78
2021/11/26 07:12:47;;;;;;;20.40;8.43;;;1.20;99.90;;;1.98;100.00;96801.09;5042206;28;20543;-78
2021/11/26 07:15:17;;;;;;;20.83;9.97;;;1.20;99.90;;;2.03;100.00;96806.59;5038084;28;20453;-78
2021/11/26 07:17:46;;;;;;;20.90;9.70;;;1.20;99.90;;;2.06;100.00;96800.28;5047265;28;20454;-78
2021/11/26 07:20:17;;;;;;;15.43;8.10;;;1.20;99.90;;;2.02;100.00;96798.06;5044748;28;20457;-78
2021/11/26 07:22:46;;;;;;;14.50;8.67;;;1.20;99.90;;;2.01;100.00;96793.84;5041364;28;20479;-78
2021/11/26 07:25:15;;;;;;;15.97;8.80;;;1.20;99.90;;;2.02;100.00;96789.50;5046754;28;20847;-78
2021/11/26 07:27:43;;;;;;;21.70;10.73;;;1.20;99.90;;;2.04;100.00;96792.75;5040097;28;20447;-78
2021/11/26 07:30:14;;;;;;;19.17;9.50;;;1.30;99.90;;;2.06;100.00;96785.63;5040611;28;20545;-78
2021/11/26 07:32:43;;;;;;;21.30;8.70;;;1.20;99.90;;;2.08;100.00;96783.72;5046889;28;20942;-78
2021/11/26 07:35:14;;;;;;;18.10;9.27;;;1.20;99.90;;;2.08;100.00;96775.97;5045189;28;20456;-78
2021/11/26 07:37:44;;;;;;;15.03;8.47;;;1.20;99.90;;;2.12;100.00;96774.66;5043375;28;20707;-78
2021/11/26 07:40:16;;;;;;;15.30;8.90;;;1.30;99.90;;;2.12;100.00;96773.88;5042053;28;20538;-78
2021/11/26 07:42:46;;;;;;;13.13;8.27;;;1.20;99.90;;;2.15;100.00;96774.34;5038539;28;20448;-78
2021/11/26 07:45:15;;;;;;;15.00;8.90;;;1.20;99.90;;;2.16;100.00;96769.97;5038059;28;20533;-78
2021/11/26 07:47:44;;;;;;;20.80;7.93;;;1.30;99.90;;;2.18;100.00;96773.22;5042917;28;20467;-78
2021/11/26 07:50:14;;;;;;;23.23;9.57;;;1.30;99.90;;;2.23;100.00;96765.75;5047725;28;20499;-78
2021/11/26 07:52:44;;;;;;;16.73;8.73;;;1.40;99.90;;;2.29;100.00;96770.28;5044188;28;20452;-78
2021/11/26 07:55:14;;;;;;;15.63;8.63;;;1.40;99.90;;;2.34;100.00;96758.47;5045652;28;20512;-78
2021/11/26 07:57:46;;;;;;;12.50;7.60;;;1.60;99.90;;;2.40;100.00;96762.97;5036573;28;20448;-78
2021/11/26 08:00:16;;;;;;;15.10;8.70;;;1.60;99.90;;;2.45;100.00;96759.88;5040392;28;20479;-78
2021/11/26 08:02:45;;;;;;;18.53;9.20;;;1.70;99.90;;;2.51;100.00;96754.03;5026450;28;20810;-78
2021/11/26 08:05:15;;;;;;;20.20;10.30;;;1.70;99.90;;;2.56;100.00;96756.94;5040709;28;20979;-78
2021/11/26 08:07:45;;;;;;;23.80;9.80;;;1.80;99.90;;;2.62;100.00;96739.97;5045836;28;20861;-78
2021/11/26 08:10:15;;;;;;;18.23;10.30;;;1.80;99.90;;;2.67;100.00;96742.84;5031251;28;20898;-78
2021/11/26 08:12:44;;;;;;;27.73;10.70;;;1.90;99.90;;;2.71;100.00;96744.91;5033942;28;20906;-78
2021/11/26 08:15:16;;;;;;;27.57;12.23;;;2.00;99.90;;;2.76;100.00;96745.22;5041089;28;20948;-78
2021/11/26 08:17:50;;;;;;;21.77;11.20;;;2.00;99.90;;;2.81;100.00;96749.88;5046135;28;20446;-78
2021/11/26 08:20:19;;;;;;;19.73;10.93;;;2.10;99.90;;;2.85;100.00;96743.38;5041254;28;20515;-78
2021/11/26 08:22:50;;;;;;;20.33;10.50;;;2.10;99.90;;;2.88;100.00;96730.91;5041070;28;20558;-79
2021/11/26 08:25:23;;;;;;;29.60;12.20;;;2.20;99.90;;;2.92;100.00;96736.53;5043730;28;20459;-78
2021/11/26 08:27:54;;;;;;;22.03;11.33;;;2.20;99.90;;;2.96;100.00;96730.88;5041233;28;20501;-78
2021/11/26 08:30:24;;;;;;;18.87;11.50;;;2.30;99.90;;;2.98;100.00;96726.38;5042726;28;20489;-78
2021/11/26 08:32:53;;;;;;;24.87;13.80;;;2.20;99.90;;;2.96;100.00;96724.91;5044529;28;20449;-78
2021/11/26 08:35:24;;;;;;;36.27;13.20;;;2.20;99.90;;;2.98;100.00;96725.56;5032788;28;20976;-78
2021/11/26 08:37:58;;;;;;;26.77;12.67;;;2.30;99.90;;;3.01;100.00;96709.72;5042824;28;20515;-78
2021/11/26 08:40:27;;;;;;;29.40;13.07;;;2.30;99.90;;;3.06;100.00;96707.41;5036935;28;20449;-78
2021/11/26 08:42:56;;;;;;;31.40;13.93;;;2.40;99.90;;;3.11;100.00;96699.16;5037538;28;20508;-78
2021/11/26 08:45:28;;;;;;;29.00;14.47;;;2.40;99.90;;;3.14;100.00;96691.84;5045552;28;20452;-78
2021/11/26 08:47:56;;;;;;;30.03;14.30;;;2.50;99.90;;;3.18;100.00;96690.53;5038854;28;20952;-78
2021/11/26 08:50:25;;;;;;;29.50;14.50;;;2.60;99.90;;;3.20;100.00;96678.25;5040483;28;20488;-78
2021/11/26 08:52:55;;;;;;;31.17;14.13;;;2.60;99.90;;;3.23;100.00;96685.63;5041961;28;20445;-78
2021/11/26 08:55:24;;;;;;;33.57;13.90;;;2.60;99.90;;;3.26;100.00;96677.56;5043294;28;20817;-78
2021/11/26 08:57:55;;;;;;;25.63;13.60;;;2.60;99.90;;;3.26;100.00;96669.81;5045863;28;20482;-78
2021/11/26 09:00:26;;;;;;;36.93;13.47;;;2.50;99.90;;;3.30;100.00;96668.47;5039285;28;20454;-78
2021/11/26 09:02:56;;;;;;;30.50;13.40;;;2.60;99.90;;;3.33;100.00;96668.09;5028987;28;20543;-78
2021/11/26 09:05:25;;;;;;;38.60;15.30;;;2.70;99.90;;;3.32;100.00;96666.53;5038963;28;20453;-78
2021/11/26 09:07:59;;;;;;;29.60;13.93;;;2.70;99.90;;;3.36;100.00;96662.63;5043479;28;20485;-78
2021/11/26 09:10:31;;;;;;;33.90;14.10;;;2.80;99.90;;;3.41;100.00;96655.13;5028419;28;20885;-78
2021/11/26 09:12:59;;;;;;;32.13;13.80;;;2.80;99.90;;;3.43;100.00;96650.59;5040003;28;20454;-78
2021/11/26 09:15:29;;;;;;;33.03;14.90;;;2.90;99.90;;;3.39;100.00;96646.75;5042818;28;20526;-78
2021/11/26 09:17:58;;;;;;;36.93;14.83;;;2.70;99.90;;;3.38;100.00;96645.13;5044679;28;20502;-78
2021/11/26 09:20:28;;;;;;;37.40;15.07;;;2.80;99.90;;;3.45;100.00;96640.06;5043380;28;20441;-78
2021/11/26 09:22:58;;;;;;;28.40;14.50;;;2.80;99.90;;;3.47;100.00;96638.13;5044137;28;20544;-78
2021/11/26 09:25:26;;;;;;;29.93;13.60;;;2.90;99.90;;;3.52;100.00;96634.03;5044878;28;20510;-78
2021/11/26 09:27:56;;;;;;;25.17;12.57;;;3.00;99.90;;;3.52;100.00;96639.19;5029973;28;20521;-78
2021/11/26 09:30:29;;;;;;;28.60;13.00;;;2.90;99.90;;;3.57;100.00;96632.69;5044903;28;20506;-78
2021/11/26 09:32:58;;;;;;;30.83;14.43;;;3.00;99.90;;;3.53;100.00;96629.66;5040855;28;20846;-78
2021/11/26 09:35:30;;;;;;;27.90;12.60;;;2.90;99.90;;;3.54;100.00;96621.72;5033635;28;20489;-78
2021/11/26 09:38:00;;;;;;;23.30;12.47;;;2.90;99.90;;;3.57;100.00;96615.41;5039144;28;20453;-79
2021/11/26 09:40:31;;;;;;;21.40;10.53;;;2.90;99.90;;;3.54;100.00;96610.56;5031755;28;20530;-78
2021/11/26 09:43:01;;;;;;;23.87;11.13;;;2.90;99.90;;;3.58;100.00;96603.25;5034911;28;20503;-78
2021/11/26 09:45:32;;;;;;;19.93;11.43;;;2.90;99.90;;;3.60;100.00;96606.50;5038290;28;20493;-78
2021/11/26 09:48:02;;;;;;;26.60;12.57;;;2.90;99.90;;;3.63;100.00;96608.72;5038199;28;20453;-78
2021/11/26 09:50:33;;;;;;;29.83;13.37;;;3.00;99.90;;;3.60;100.00;96602.13;5040075;28;20497;-78
2021/11/26 09:53:17;;;;;;;26.60;14.53;;;2.90;99.90;;;3.62;100.00;96591.59;5028955;28;20520;-78
2021/11/26 09:55:52;;;;;;;27.13;12.83;;;3.10;99.90;;;3.69;100.00;96597.66;5036600;28;20452;-78
2021/11/26 09:58:23;;;;;;;29.47;14.30;;;3.10;99.90;;;3.64;100.00;96592.22;5040638;28;20513;-78
2021/11/26 10:00:54;;;;;;;25.63;13.20;;;3.00;99.90;;;3.66;100.00;96591.06;5029397;28;20520;-78
2021/11/26 10:03:25;;;;;;;25.23;12.53;;;3.00;99.90;;;3.69;100.00;96584.72;5018400;28;20512;-78
2021/11/26 10:05:53;;;;;;;24.60;12.27;;;3.10;99.90;;;3.67;100.00;96584.13;5037604;28;20447;-78
2021/11/26 10:08:24;;;;;;;25.70;11.90;;;3.00;99.90;;;3.70;100.00;96573.41;5029275;28;20437;-78
2021/11/26 10:11:00;;;;;;;22.93;11.20;;;3.00;99.90;;;3.69;100.00;96572.59;5025895;28;20438;-78
2021/11/26 10:13:32;;;;;;;22.43;11.33;;;3.00;99.90;;;3.68;100.00;96571.00;5039330;28;20508;-78
2021/11/26 10:16:11;;;;;;;18.03;10.40;;;2.90;99.90;;;3.71;100.00;96572.44;5038690;28;20447;-78
2021/11/26 10:18:48;;;;;;;24.50;11.00;;;3.10;99.90;;;3.71;100.00;96562.09;5029971;28;20937;-78
2021/11/26 10:21:18;;;;;;;19.07;10.97;;;3.10;99.90;;;3.73;100.00;96557.53;5043599;28;20897;-78
2021/11/26 10:23:53;;;;;;;18.83;9.40;;;3.10;99.90;;;3.69;100.00;96559.69;5042479;28;20872;-79
2021/11/26 10:26:25;;;;;;;19.10;10.03;;;3.00;99.90;;;3.70;100.00;96553.53;5038547;28;20486;-79
2021/11/26 10:29:00;;;;;;;21.17;9.93;;;3.00;99.90;;;3.78;100.00;96544.88;5033951;28;20445;-78